Time;durP1;ratioP1;P1;durP2;ratioP2;P2;SDS_P1;SDS_P2;PMS_P1;PMS_P2;Temp;Humidity;BMP_temperature;BMP_pressure;BME280_temperature;BME280_humidity;BME280_pressure;Samples;Min_cycle;Max_cycle;Signal;HPM_P1;HPM_P2
2021/03/06 00:00:53;;;;;;;;;;;;;;;18.51;66.95;101303.72;5110078;28;1964;-72
2021/03/06 00:03:20;;;;;;;;;;;;;;;18.52;66.89;101306.28;5110474;28;991;-71
2021/03/06 00:05:46;;;;;;;;;;;;;;;18.51;66.86;101306.38;5091940;28;1315;-71
2021/03/06 00:08:12;;;;;;;;;;;;;;;18.58;67.53;101305.13;5100269;28;2013;-73
2021/03/06 00:10:38;;;;;;;;;;;;;;;18.55;67.12;101307.91;5073042;28;1837;-74
2021/03/06 00:13:09;;;;;;;;;;;;;;;18.55;67.07;101313.19;5076537;28;1866;-73
2021/03/06 00:15:35;;;;;;;;;;;;;;;18.54;67.00;101307.06;5088446;28;1216;-72
2021/03/06 00:18:01;;;;;;;;;;;;;;;18.53;67.29;101310.63;5083778;28;1794;-73
2021/03/06 00:20:29;;;;;;;;;;;;;;;18.53;67.12;101307.16;5092067;28;2015;-73
2021/03/06 00:22:55;;;;;;;;;;;;;;;18.51;67.36;101320.38;5077220;28;1119;-73
2021/03/06 00:25:22;;;;;;;;;;;;;;;18.53;67.32;101318.56;5099302;28;1816;-72
2021/03/06 00:27:48;;;;;;;;;;;;;;;18.52;67.36;101318.63;5088334;28;1062;-72
2021/03/06 00:30:16;;;;;;;;;;;;;;;18.53;67.34;101312.41;5085928;28;1336;-74
2021/03/06 00:32:43;;;;;;;;;;;;;;;18.52;67.16;101318.63;5094184;28;1053;-74
2021/03/06 00:35:10;;;;;;;;;;;;;;;18.51;67.04;101320.38;5108416;28;1236;-73
2021/03/06 00:37:36;;;;;;;;;;;;;;;18.51;67.28;101316.91;5090098;28;1167;-74
2021/03/06 00:40:04;;;;;;;;;;;;;;;18.50;67.36;101323.13;5108185;28;1913;-74
2021/03/06 00:42:30;;;;;;;;;;;;;;;18.51;67.22;101319.56;5098426;28;1809;-74
2021/03/06 00:44:57;;;;;;;;;;;;;;;18.59;67.13;101313.91;5075578;28;1240;-73
2021/03/06 00:47:23;;;;;;;;;;;;;;;18.53;67.28;101310.63;5089466;28;1049;-73
2021/03/06 00:49:50;;;;;;;;;;;;;;;18.50;67.24;101317.84;5089521;28;920;-73
2021/03/06 00:52:16;;;;;;;;;;;;;;;18.49;67.16;101318.75;5089023;28;1229;-73
2021/03/06 00:54:42;;;;;;;;;;;;;;;18.47;67.00;101313.53;5071153;28;1398;-73
2021/03/06 00:57:08;;;;;;;;;;;;;;;18.48;66.93;101317.03;5089368;28;1216;-73
2021/03/06 00:59:35;;;;;;;;;;;;;;;18.46;67.17;101314.44;5071074;28;1981;-74
2021/03/06 01:02:01;;;;;;;;;;;;;;;18.46;67.06;101311.81;5071040;28;1177;-73
2021/03/06 01:04:28;;;;;;;;;;;;;;;18.45;67.07;101311.91;5089076;28;838;-73
2021/03/06 01:06:54;;;;;;;;;;;;;;;18.44;67.07;101313.69;5070667;28;1232;-74
2021/03/06 01:09:20;;;;;;;;;;;;;;;18.44;67.08;101312.81;5088973;28;1054;-73
2021/03/06 01:11:47;;;;;;;;;;;;;;;18.43;67.28;101317.22;5070505;28;1688;-73
2021/03/06 01:14:13;;;;;;;;;;;;;;;18.42;67.24;101314.69;5088703;28;1232;-73
2021/03/06 01:16:39;;;;;;;;;;;;;;;18.42;67.03;101310.22;5088961;28;1334;-73
2021/03/06 01:19:06;;;;;;;;;;;;;;;18.42;67.17;101317.31;5089442;28;1155;-73
2021/03/06 01:21:32;;;;;;;;;;;;;;;18.42;67.00;101309.41;5070942;28;1913;-72
2021/03/06 01:23:58;;;;;;;;;;;;;;;18.41;66.98;101307.69;5070799;28;1140;-72
2021/03/06 01:26:24;;;;;;;;;;;;;;;18.41;67.05;101302.41;5089125;28;1228;-72
2021/03/06 01:28:51;;;;;;;;;;;;;;;18.42;66.95;101304.13;5088650;28;862;-71
2021/03/06 01:31:17;;;;;;;;;;;;;;;18.40;67.04;101309.47;5088733;28;1217;-72
2021/03/06 01:33:44;;;;;;;;;;;;;;;18.38;67.08;101302.56;5089209;28;1220;-72
2021/03/06 01:36:10;;;;;;;;;;;;;;;18.38;66.99;101295.50;5088930;28;1302;-72
2021/03/06 01:38:37;;;;;;;;;;;;;;;18.39;67.06;101305.09;5089063;28;1136;-71
2021/03/06 01:41:03;;;;;;;;;;;;;;;18.39;66.96;101301.63;5088496;28;1909;-72
2021/03/06 01:43:29;;;;;;;;;;;;;;;18.38;66.94;101297.28;5088335;28;1220;-72
2021/03/06 01:45:56;;;;;;;;;;;;;;;18.38;67.00;101297.28;5092564;28;1232;-71
2021/03/06 01:48:22;;;;;;;;;;;;;;;18.38;67.17;101299.91;5092970;28;1143;-72
2021/03/06 01:50:50;;;;;;;;;;;;;;;18.36;66.90;101284.16;5074200;28;1404;-72
2021/03/06 01:53:17;;;;;;;;;;;;;;;18.38;66.98;101284.09;5092744;28;1038;-73
2021/03/06 01:55:47;;;;;;;;;;;;;;;18.38;66.91;101289.38;5074086;28;1291;-73
2021/03/06 01:58:13;;;;;;;;;;;;;;;18.36;67.09;101285.97;5074141;28;1574;-73
2021/03/06 02:00:40;;;;;;;;;;;;;;;18.36;66.87;101294.69;5090855;28;1918;-74
2021/03/06 02:03:06;;;;;;;;;;;;;;;18.34;67.04;101286.00;5074327;28;1180;-73
2021/03/06 02:05:33;;;;;;;;;;;;;;;18.35;66.82;101285.09;5092341;28;1335;-71
2021/03/06 02:08:01;;;;;;;;;;;;;;;18.36;66.82;101283.31;5092346;28;1079;-72
2021/03/06 02:10:29;;;;;;;;;;;;;;;18.34;66.77;101283.38;5092230;28;1322;-72
2021/03/06 02:12:56;;;;;;;;;;;;;;;18.34;66.76;101288.66;5092376;28;1487;-72
2021/03/06 02:15:41;;;;;;;;;;;;;;;18.32;66.62;101285.25;5091987;28;1248;-73
2021/03/06 02:18:12;;;;;;;;;;;;;;;18.33;66.59;101286.09;5073758;28;1228;-73
2021/03/06 02:20:44;;;;;;;;;;;;;;;18.36;66.57;101278.03;5091927;28;1913;-73
2021/03/06 02:23:24;;;;;;;;;;;;;;;18.33;66.67;101278.19;5090789;28;1281;-72
2021/03/06 02:25:59;;;;;;;;;;;;;;;18.33;66.87;101278.19;5092080;28;1318;-72
2021/03/06 02:28:35;;;;;;;;;;;;;;;18.31;66.88;101287.94;5073763;28;1011;-71
2021/03/06 02:31:03;;;;;;;;;;;;;;;18.31;66.72;101280.03;5091818;28;1228;-71
2021/03/06 02:33:30;;;;;;;;;;;;;;;18.31;66.74;101288.78;5091902;28;1130;-73
2021/03/06 02:35:59;;;;;;;;;;;;;;;18.29;66.79;101282.75;5091899;28;1257;-73
2021/03/06 02:38:28;;;;;;;;;;;;;;;18.29;66.86;101280.09;5091495;28;1546;-71
2021/03/06 02:40:54;;;;;;;;;;;;;;;18.29;66.89;101280.09;5091445;28;1917;-71
2021/03/06 02:43:22;;;;;;;;;;;;;;;18.28;66.78;101277.53;5091816;28;1154;-72
2021/03/06 02:45:49;;;;;;;;;;;;;;;18.28;66.75;101293.34;5091619;28;1343;-72
2021/03/06 02:48:16;;;;;;;;;;;;;;;18.29;66.71;101284.53;5091450;28;959;-72
2021/03/06 02:50:42;;;;;;;;;;;;;;;18.28;66.77;101282.81;5091668;28;1228;-72
2021/03/06 02:53:09;;;;;;;;;;;;;;;18.28;66.84;101282.81;5091538;28;1059;-71
2021/03/06 02:55:39;;;;;;;;;;;;;;;18.29;66.74;101284.53;5090188;28;1240;-71
2021/03/06 02:58:11;;;;;;;;;;;;;;;18.27;66.73;101276.66;5091208;28;1029;-71
2021/03/06 03:00:42;;;;;;;;;;;;;;;18.27;66.83;101286.38;5091073;28;1909;-70
2021/03/06 03:03:15;;;;;;;;;;;;;;;18.28;66.81;101285.44;5091527;28;1098;-71
2021/03/06 03:06:02;;;;;;;;;;;;;;;18.26;66.75;101289.94;5072668;28;1280;-72
2021/03/06 03:08:31;;;;;;;;;;;;;;;18.27;66.58;101286.38;5091338;28;1051;-72
2021/03/06 03:11:01;;;;;;;;;;;;;;;18.25;66.82;101293.50;5072395;28;1732;-72
2021/03/06 03:13:49;;;;;;;;;;;;;;;18.27;66.83;101291.66;5072870;28;1328;-71
2021/03/06 03:16:19;;;;;;;;;;;;;;;18.27;66.61;101291.66;5072591;28;1289;-72
2021/03/06 03:18:48;;;;;;;;;;;;;;;18.26;66.77;101290.81;5091318;28;1134;-70
2021/03/06 03:21:17;;;;;;;;;;;;;;;18.24;66.76;101287.34;5090716;28;1909;-70
2021/03/06 03:23:45;;;;;;;;;;;;;;;18.25;66.87;101290.84;5091265;28;1071;-68
2021/03/06 03:26:13;;;;;;;;;;;;;;;18.22;66.81;101294.50;5073501;28;1300;-70
2021/03/06 03:28:40;;;;;;;;;;;;;;;18.24;66.73;101297.06;5091178;28;1112;-70
2021/03/06 03:31:10;;;;;;;;;;;;;;;18.23;66.81;101298.84;5072856;28;1374;-70
2021/03/06 03:33:39;;;;;;;;;;;;;;;18.24;66.90;101302.34;5090765;28;1152;-70
2021/03/06 03:36:06;;;;;;;;;;;;;;;18.23;66.83;101305.91;5091035;28;1303;-70
2021/03/06 03:38:33;;;;;;;;;;;;;;;18.23;66.84;101312.03;5090368;28;1020;-70
2021/03/06 03:41:00;;;;;;;;;;;;;;;18.23;66.72;101316.44;5072161;28;1981;-70
2021/03/06 03:43:27;;;;;;;;;;;;;;;18.22;66.72;101318.22;5090750;28;1057;-70
2021/03/06 03:45:54;;;;;;;;;;;;;;;18.24;66.72;101319.00;5072002;28;1576;-70
2021/03/06 03:48:21;;;;;;;;;;;;;;;18.22;66.71;101309.44;5090551;28;1052;-71
2021/03/06 03:50:48;;;;;;;;;;;;;;;18.17;66.66;101308.81;5090282;28;1267;-72
2021/03/06 03:53:16;;;;;;;;;;;;;;;18.21;66.77;101328.84;5055310;28;1279;-70
2021/03/06 03:55:43;;;;;;;;;;;;;;;18.23;66.81;101324.38;5090021;28;1240;-70
2021/03/06 03:58:09;;;;;;;;;;;;;;;18.22;66.82;101338.47;5090304;28;928;-70
2021/03/06 04:00:36;;;;;;;;;;;;;;;18.21;66.68;101345.50;5071664;28;1913;-72
2021/03/06 04:03:03;;;;;;;;;;;;;;;18.22;66.70;101349.00;5090125;28;1057;-72
2021/03/06 04:05:29;;;;;;;;;;;;;;;18.20;66.72;101364.91;5072011;28;1179;-72
2021/03/06 04:07:56;;;;;;;;;;;;;;;18.20;66.59;101369.31;5089713;28;1087;-72
2021/03/06 04:10:23;;;;;;;;;;;;;;;18.19;66.66;101380.78;5089624;28;1234;-72
2021/03/06 04:12:50;;;;;;;;;;;;;;;18.20;66.83;101380.75;5090201;28;1445;-72
2021/03/06 04:15:17;;;;;;;;;;;;;;;18.19;66.75;101373.75;5090040;28;1189;-72
2021/03/06 04:17:44;;;;;;;;;;;;;;;18.20;66.65;101379.88;5089800;28;1097;-72
2021/03/06 04:20:12;;;;;;;;;;;;;;;18.20;66.54;101385.16;5089686;28;1905;-72
2021/03/06 04:22:38;;;;;;;;;;;;;;;18.19;66.51;101378.16;5089592;28;885;-72
2021/03/06 04:25:05;;;;;;;;;;;;;;;18.17;66.80;101382.66;5089386;28;1226;-72
2021/03/06 04:27:32;;;;;;;;;;;;;;;18.19;66.85;101388.69;5089601;28;894;-72
2021/03/06 04:29:58;;;;;;;;;;;;;;;18.18;66.97;101394.91;5089440;28;1334;-72
2021/03/06 04:32:25;;;;;;;;;;;;;;;18.19;66.74;101393.97;5054479;28;1286;-72
2021/03/06 04:34:51;;;;;;;;;;;;;;;18.18;66.90;101394.91;5071659;28;1028;-72
2021/03/06 04:37:18;;;;;;;;;;;;;;;18.16;66.79;101399.38;5071090;28;1371;-72
2021/03/06 04:39:44;;;;;;;;;;;;;;;18.18;67.03;101402.84;5089298;28;824;-71
2021/03/06 04:42:11;;;;;;;;;;;;;;;18.17;66.86;101401.97;5070754;28;1906;-71
2021/03/06 04:44:37;;;;;;;;;;;;;;;18.17;67.10;101411.66;5071257;28;795;-71
2021/03/06 04:47:04;;;;;;;;;;;;;;;18.14;67.11;101412.66;5070896;28;1312;-71
2021/03/06 04:49:30;;;;;;;;;;;;;;;18.15;66.99;101411.72;5089117;28;1141;-71
2021/03/06 04:51:57;;;;;;;;;;;;;;;18.14;67.25;101414.44;5070930;28;1335;-71
2021/03/06 04:54:23;;;;;;;;;;;;;;;18.15;67.08;101410.88;5089070;28;794;-72
2021/03/06 04:57:07;;;;;;;;;;;;;;;18.14;67.13;101417.06;5070701;28;1434;-72
2021/03/06 04:59:34;;;;;;;;;;;;;;;18.15;67.27;101424.06;5089043;28;770;-72
2021/03/06 05:02:00;;;;;;;;;;;;;;;18.16;67.13;101431.03;5088927;28;1987;-71
2021/03/06 05:04:26;;;;;;;;;;;;;;;18.14;67.33;101433.75;5089138;28;813;-72
2021/03/06 05:06:53;;;;;;;;;;;;;;;18.13;67.29;101431.16;5087506;28;1290;-71
2021/03/06 05:09:21;;;;;;;;;;;;;;;18.13;67.22;101433.78;5070999;28;826;-71
2021/03/06 05:11:47;;;;;;;;;;;;;;;18.13;67.21;101436.44;5088800;28;1464;-71
2021/03/06 05:14:14;;;;;;;;;;;;;;;18.13;67.43;101444.34;5070625;28;1293;-71
2021/03/06 05:16:40;;;;;;;;;;;;;;;18.12;67.37;101440.00;5088877;28;1236;-71
2021/03/06 05:19:06;;;;;;;;;;;;;;;18.12;67.34;101440.00;5093340;28;1254;-71
2021/03/06 05:21:33;;;;;;;;;;;;;;;18.11;67.40;101443.56;5077359;28;1905;-73
2021/03/06 05:23:59;;;;;;;;;;;;;;;18.12;67.58;101447.94;5096012;28;1162;-73
2021/03/06 05:26:25;;;;;;;;;;;;;;;18.10;67.45;101452.38;5077204;28;1346;-72
2021/03/06 05:28:52;;;;;;;;;;;;;;;18.12;67.46;101461.09;5095874;28;898;-72
2021/03/06 05:31:18;;;;;;;;;;;;;;;18.10;67.41;101453.25;5095520;28;1232;-72
2021/03/06 05:33:44;;;;;;;;;;;;;;;18.10;67.41;101462.94;5077540;28;1064;-72
2021/03/06 05:36:11;;;;;;;;;;;;;;;18.10;67.26;101462.94;5095312;28;1306;-70
2021/03/06 05:38:37;;;;;;;;;;;;;;;18.12;67.30;101463.75;5077167;28;1284;-73
2021/03/06 05:41:03;;;;;;;;;;;;;;;18.11;67.26;101472.56;5095154;28;1913;-72
2021/03/06 05:43:29;;;;;;;;;;;;;;;18.12;67.05;101466.38;5095633;28;1001;-72
2021/03/06 05:45:56;;;;;;;;;;;;;;;18.08;67.27;101465.66;5095258;28;1319;-73
2021/03/06 05:48:22;;;;;;;;;;;;;;;18.08;67.05;101477.97;5077176;28;1610;-73
2021/03/06 05:50:50;;;;;;;;;;;;;;;18.09;67.27;101483.16;5077044;28;1332;-72
2021/03/06 05:53:19;;;;;;;;;;;;;;;18.10;67.13;101476.97;5095734;28;1196;-72
2021/03/06 05:55:48;;;;;;;;;;;;;;;18.09;67.11;101484.97;5095471;28;1313;-73
2021/03/06 05:58:16;;;;;;;;;;;;;;;18.08;67.08;101481.47;5095812;28;982;-72
2021/03/06 06:00:43;;;;;;;;;;;;;;;18.08;66.98;101483.25;5095601;28;2018;-72
2021/03/06 06:03:10;;;;;;;;;;;;;;;18.07;67.02;101490.28;5077675;28;1424;-72
2021/03/06 06:05:36;;;;;;;;;;;;;;;18.08;67.25;101491.16;5094129;28;1570;-72
2021/03/06 06:08:03;;;;;;;;;;;;;;;18.07;67.01;101489.44;5092950;28;1340;-72
2021/03/06 06:10:31;;;;;;;;;;;;;;;18.07;67.32;101494.69;5096088;28;1601;-71
2021/03/06 06:13:00;;;;;;;;;;;;;;;18.06;67.11;101493.84;5074700;28;1528;-71
2021/03/06 06:15:27;;;;;;;;;;;;;;;18.06;67.22;101501.75;5101704;28;1338;-72
2021/03/06 06:17:53;;;;;;;;;;;;;;;18.13;68.68;101495.31;5115920;28;861;-72
2021/03/06 06:20:21;;;;;;;;;;;;;;;18.15;67.56;101503.16;5087914;28;2013;-70
2021/03/06 06:22:48;;;;;;;;;;;;;;;18.11;67.66;101496.28;5076657;28;1169;-73
2021/03/06 06:25:30;;;;;;;;;;;;;;;18.09;67.40;101504.25;5093415;28;1360;-70
2021/03/06 06:28:13;;;;;;;;;;;;;;;18.08;67.47;101507.84;5086579;28;1145;-72
2021/03/06 06:30:40;;;;;;;;;;;;;;;18.07;67.40;101499.97;5070872;28;1311;-71
2021/03/06 06:33:06;;;;;;;;;;;;;;;18.07;67.56;101510.53;5052098;28;1136;-74
2021/03/06 06:35:40;;;;;;;;;;;;;;;18.06;67.35;101508.78;5070202;28;1314;-74
2021/03/06 06:38:06;;;;;;;;;;;;;;;18.06;67.48;101509.66;5088668;28;1307;-73
2021/03/06 06:40:34;;;;;;;;;;;;;;;18.07;67.38;101505.25;5089884;28;1987;-70
2021/03/06 06:43:00;;;;;;;;;;;;;;;18.08;67.42;101514.88;5090283;28;932;-71
2021/03/06 06:45:36;;;;;;;;;;;;;;;18.07;67.87;101513.16;5071673;28;1393;-72
2021/03/06 06:48:09;;;;;;;;;;;;;;;18.09;67.53;101521.88;5090643;28;1104;-74
2021/03/06 06:50:36;;;;;;;;;;;;;;;18.18;68.66;101522.31;5071777;28;1308;-71
2021/03/06 06:53:03;;;;;;;;;;;;;;;18.15;67.65;101526.91;5071482;28;1861;-71
2021/03/06 06:55:35;;;;;;;;;;;;;;;18.12;67.55;101524.38;5051815;28;1225;-71
2021/03/06 06:58:01;;;;;;;;;;;;;;;18.07;67.55;101529.84;5070198;28;1051;-71
2021/03/06 07:00:31;;;;;;;;;;;;;;;18.06;67.57;101522.84;5069843;28;1909;-74
2021/03/06 07:03:01;;;;;;;;;;;;;;;18.06;67.65;101525.47;5069579;28;1014;-74
2021/03/06 07:05:29;;;;;;;;;;;;;;;18.06;67.62;101529.88;5051386;28;1262;-71
2021/03/06 07:07:56;;;;;;;;;;;;;;;18.07;67.32;101536.88;5051331;28;1402;-71
2021/03/06 07:10:22;;;;;;;;;;;;;;;18.06;67.60;101540.44;5069572;28;1244;-71
2021/03/06 07:12:56;;;;;;;;;;;;;;;18.06;67.63;101535.16;5069214;28;1559;-72
2021/03/06 07:15:23;;;;;;;;;;;;;;;18.07;67.59;101543.03;5050824;28;1319;-75
2021/03/06 07:17:51;;;;;;;;;;;;;;;18.07;67.83;101545.66;5069179;28;1122;-73
2021/03/06 07:20:20;;;;;;;;;;;;;;;18.08;67.23;101546.53;5069099;28;1914;-72
2021/03/06 07:22:46;;;;;;;;;;;;;;;18.03;67.35;101547.56;5051160;28;1623;-72
2021/03/06 07:25:12;;;;;;;;;;;;;;;18.04;67.26;101551.06;5068805;28;1236;-73
2021/03/06 07:27:41;;;;;;;;;;;;;;;18.05;67.48;101554.56;5050625;28;1055;-74
2021/03/06 07:30:09;;;;;;;;;;;;;;;18.04;67.21;101558.97;5051131;28;1180;-72
2021/03/06 07:32:38;;;;;;;;;;;;;;;18.06;67.42;101564.16;5068171;28;1018;-72
2021/03/06 07:35:07;;;;;;;;;;;;;;;18.03;67.51;101562.50;5050468;28;1327;-70
2021/03/06 07:37:33;;;;;;;;;;;;;;;18.05;67.39;101568.59;5068583;28;911;-72
2021/03/06 07:40:01;;;;;;;;;;;;;;;18.06;67.40;101561.53;5051283;28;1220;-72
2021/03/06 07:42:27;;;;;;;;;;;;;;;18.04;67.42;101569.50;5069571;28;1910;-73
2021/03/06 07:44:54;;;;;;;;;;;;;;;18.04;67.41;101569.50;5052051;28;1135;-74
2021/03/06 07:47:23;;;;;;;;;;;;;;;18.06;67.50;101579.97;5070348;28;1370;-74
2021/03/06 07:49:51;;;;;;;;;;;;;;;18.04;67.61;101580.06;5051831;28;1472;-72
2021/03/06 07:52:18;;;;;;;;;;;;;;;18.03;67.20;101592.38;5069789;28;1209;-72
2021/03/06 07:54:44;;;;;;;;;;;;;;;18.05;67.37;101599.38;5069788;28;778;-74
2021/03/06 07:57:10;;;;;;;;;;;;;;;18.03;67.35;101600.28;5069642;28;1233;-74
2021/03/06 07:59:46;;;;;;;;;;;;;;;18.03;67.54;101610.84;5071838;28;1546;-73
2021/03/06 08:02:27;;;;;;;;;;;;;;;18.03;67.38;101610.84;5075023;28;1921;-72
2021/03/06 08:04:54;;;;;;;;;;;;;;;18.01;67.27;101599.50;5071290;28;1635;-74
2021/03/06 08:07:35;;;;;;;;;;;;;;;18.02;67.17;101606.47;5086996;28;1550;-72
2021/03/06 08:10:02;;;;;;;;;;;;;;;18.01;67.33;101614.47;5068867;28;1730;-72
2021/03/06 08:12:33;;;;;;;;;;;;;;;18.12;67.89;101624.59;5073004;28;1447;-69
2021/03/06 08:15:19;;;;;;;;;;;;;;;18.16;67.70;101620.88;5084674;28;1581;-71
2021/03/06 08:17:45;;;;;;;;;;;;;;;18.22;68.60;101624.13;5060134;28;1652;-69
2021/03/06 08:20:22;;;;;;;;;;;;;;;18.20;67.59;101633.03;5081188;28;1305;-69
2021/03/06 08:23:08;;;;;;;;;;;;;;;18.21;67.47;101637.41;5051237;28;1391;-68
2021/03/06 08:25:34;;;;;;;;;;;;;;;18.25;67.40;101636.31;5074125;28;1621;-70
2021/03/06 08:28:22;;;;;;;;;;;;;;;18.25;67.08;101642.47;5065656;28;1524;-70
2021/03/06 08:30:49;;;;;;;;;;;;;;;18.26;67.23;101643.34;5080035;28;1433;-71
2021/03/06 08:33:16;;;;;;;;;;;;;;;18.39;67.96;101652.47;5069897;28;1079;-68
2021/03/06 08:35:43;;;;;;;;;;;;;;;18.39;67.60;101642.75;5074336;28;1424;-72
2021/03/06 08:38:25;;;;;;;;;;;;;;;18.46;68.89;101651.28;5078586;28;1095;-70
2021/03/06 08:40:52;;;;;;;;;;;;;;;18.53;67.38;101648.38;5056491;28;1914;-66
2021/03/06 08:43:19;;;;;;;;;;;;;;;18.60;67.11;101651.59;5060524;28;1100;-67
2021/03/06 08:45:46;;;;;;;;;;;;;;;18.69;67.58;101664.41;5077861;28;1570;-71
2021/03/06 08:48:13;;;;;;;;;;;;;;;18.74;66.92;101657.16;5070781;28;1467;-70
2021/03/06 08:50:39;;;;;;;;;;;;;;;18.77;68.07;101657.00;5069017;28;1362;-68
2021/03/06 08:53:05;;;;;;;;;;;;;;;18.76;67.98;101660.56;5063835;28;1226;-67
2021/03/06 08:55:38;;;;;;;;;;;;;;;18.68;67.89;101662.69;5067340;28;1460;-68
2021/03/06 08:58:05;;;;;;;;;;;;;;;18.63;67.97;101664.66;5045427;28;1573;-73
2021/03/06 09:00:32;;;;;;;;;;;;;;;18.64;67.73;101661.09;5072657;28;1918;-74
2021/03/06 09:03:07;;;;;;;;;;;;;;;18.61;67.81;101663.00;5051421;28;1055;-70
2021/03/06 09:05:34;;;;;;;;;;;;;;;18.61;67.82;101673.53;5064987;28;1400;-71
2021/03/06 09:08:00;;;;;;;;;;;;;;;18.61;67.54;101665.63;5062338;28;1058;-71
2021/03/06 09:10:37;;;;;;;;;;;;;;;18.65;68.71;101668.09;5063226;28;1583;-76
2021/03/06 09:13:06;;;;;;;;;;;;;;;18.78;67.89;101665.78;5034813;28;1817;-71
2021/03/06 09:15:34;;;;;;;;;;;;;;;18.77;68.19;101674.63;5051958;28;1331;-72
2021/03/06 09:18:01;;;;;;;;;;;;;;;18.77;67.97;101672.00;5055755;28;1035;-79
2021/03/06 09:20:29;;;;;;;;;;;;;;;18.74;68.07;101672.97;5076163;28;1906;-76
2021/03/06 09:22:56;;;;;;;;;;;;;;;18.72;68.27;101677.47;5076455;28;1103;-74
2021/03/06 09:25:33;;;;;;;;;;;;;;;18.78;68.12;101679.84;5067339;28;1240;-74
2021/03/06 09:28:00;;;;;;;;;;;;;;;19.03;67.79;101687.56;5066901;28;1115;-70
2021/03/06 09:30:34;;;;;;;;;;;;;;;18.94;67.96;101690.59;5048346;28;1436;-69
2021/03/06 09:33:01;;;;;;;;;;;;;;;19.00;66.93;101696.47;5054891;28;1044;-72
2021/03/06 09:35:28;;;;;;;;;;;;;;;18.93;66.94;101700.31;5055434;28;1348;-72
2021/03/06 09:38:04;;;;;;;;;;;;;;;18.85;67.76;101701.53;5048038;28;1017;-69
2021/03/06 09:40:36;;;;;;;;;;;;;;;18.81;67.93;101708.75;5064537;28;1968;-72
2021/03/06 09:43:32;;;;;;;;;;;;;;;18.79;68.05;101702.66;5047441;28;1286;-72
2021/03/06 09:45:59;;;;;;;;;;;;;;;18.78;67.65;101713.31;5047796;28;1434;-70
2021/03/06 09:48:26;;;;;;;;;;;;;;;18.80;68.00;101714.09;5031674;28;1223;-75
2021/03/06 09:50:55;;;;;;;;;;;;;;;18.79;67.87;101715.88;5066171;28;1339;-74
2021/03/06 09:53:25;;;;;;;;;;;;;;;18.81;67.83;101721.09;5049419;28;1559;-76
2021/03/06 09:56:12;;;;;;;;;;;;;;;18.80;67.81;101727.28;5035273;28;1273;-74
2021/03/06 09:58:41;;;;;;;;;;;;;;;18.84;67.08;101728.88;5072773;28;1384;-74
2021/03/06 10:01:12;;;;;;;;;;;;;;;18.89;67.56;101718.97;5070591;28;1993;-77
2021/03/06 10:03:39;;;;;;;;;;;;;;;18.91;67.51;101731.19;5046903;28;1143;-74
2021/03/06 10:06:06;;;;;;;;;;;;;;;18.81;68.06;101723.75;5051183;28;1241;-74
2021/03/06 10:08:37;;;;;;;;;;;;;;;18.87;68.18;101737.53;5069585;28;1317;-76
2021/03/06 10:11:03;;;;;;;;;;;;;;;18.90;67.97;101728.63;5051353;28;1559;-72
2021/03/06 10:13:34;;;;;;;;;;;;;;;18.94;67.28;101732.84;5088802;28;1439;-75
2021/03/06 10:16:01;;;;;;;;;;;;;;;19.01;68.02;101724.59;5087792;28;1228;-74
2021/03/06 10:18:28;;;;;;;;;;;;;;;19.01;66.92;101723.75;5089509;28;1097;-72
2021/03/06 10:20:54;;;;;;;;;;;;;;;18.97;67.98;101725.66;5070970;28;1905;-68
2021/03/06 10:23:33;;;;;;;;;;;;;;;19.04;66.13;101724.47;5083998;28;1262;-75
2021/03/06 10:26:14;;;;;;;;;;;;;;;18.93;67.18;101736.41;5053209;28;1322;-68
2021/03/06 10:28:41;;;;;;;;;;;;;;;18.89;67.08;101730.41;5088192;28;1021;-73
2021/03/06 10:31:29;;;;;;;;;;;;;;;18.89;67.02;101735.69;5089860;28;1335;-72
2021/03/06 10:33:57;;;;;;;;;;;;;;;18.84;67.35;101736.81;5088416;28;1127;-73
2021/03/06 10:36:24;;;;;;;;;;;;;;;18.88;67.71;101739.25;5089776;28;1208;-74
2021/03/06 10:39:10;;;;;;;;;;;;;;;18.83;67.61;101741.22;5073392;28;1468;-74
2021/03/06 10:41:36;;;;;;;;;;;;;;;18.79;67.87;101734.34;5072545;28;1902;-74
2021/03/06 10:44:03;;;;;;;;;;;;;;;18.73;64.21;101737.25;5072618;28;1054;-70
2021/03/06 10:46:30;;;;;;;;;;;;;;;18.69;62.41;101738.31;5090826;28;1236;-73
2021/03/06 10:48:57;;;;;;;;;;;;;;;18.68;63.99;101735.72;5091200;28;1227;-72
2021/03/06 10:51:24;;;;;;;;;;;;;;;18.72;65.40;101742.59;5089514;28;1244;-72
2021/03/06 10:53:59;;;;;;;;;;;;;;;18.72;66.39;101738.19;5071908;28;1035;-72
2021/03/06 10:56:25;;;;;;;;;;;;;;;18.72;66.94;101740.81;5052616;28;1339;-74
2021/03/06 10:58:52;;;;;;;;;;;;;;;18.70;67.04;101737.38;5071184;28;1060;-73
2021/03/06 11:01:33;;;;;;;;;;;;;;;18.70;67.15;101731.22;5054537;28;1977;-73
2021/03/06 11:04:00;;;;;;;;;;;;;;;18.71;67.20;101735.59;5091419;28;1073;-73
2021/03/06 11:06:26;;;;;;;;;;;;;;;18.69;66.90;101732.16;5089614;28;1248;-73
2021/03/06 11:09:05;;;;;;;;;;;;;;;18.69;67.07;101735.66;5072156;28;1218;-72
2021/03/06 11:11:48;;;;;;;;;;;;;;;18.68;66.94;101730.44;5037685;28;1478;-72
2021/03/06 11:14:28;;;;;;;;;;;;;;;18.68;67.04;101735.72;5052733;28;941;-71
2021/03/06 11:16:54;;;;;;;;;;;;;;;18.67;66.97;101740.13;5051368;28;1347;-73
2021/03/06 11:19:22;;;;;;;;;;;;;;;18.67;66.87;101734.84;5070925;28;778;-72
2021/03/06 11:21:48;;;;;;;;;;;;;;;18.67;66.99;101736.63;5072068;28;1906;-73
2021/03/06 11:24:14;;;;;;;;;;;;;;;18.68;66.80;101733.94;5072362;28;1047;-73
2021/03/06 11:26:41;;;;;;;;;;;;;;;18.67;66.71;101731.34;5089647;28;1216;-73
2021/03/06 11:29:07;;;;;;;;;;;;;;;18.66;66.85;101732.28;5070601;28;1079;-72
2021/03/06 11:31:50;;;;;;;;;;;;;;;18.65;66.75;101733.19;5053178;28;1416;-74
2021/03/06 11:34:16;;;;;;;;;;;;;;;18.65;66.79;101730.56;5055431;28;1356;-73
2021/03/06 11:36:42;;;;;;;;;;;;;;;18.73;65.98;101737.25;5089248;28;1605;-77
2021/03/06 11:39:09;;;;;;;;;;;;;;;18.81;66.12;101727.25;5089740;28;1148;-74
2021/03/06 11:41:35;;;;;;;;;;;;;;;18.81;66.18;101737.81;5089492;28;1933;-75
2021/03/06 11:44:02;;;;;;;;;;;;;;;18.78;66.58;101731.78;5092455;28;985;-74
2021/03/06 11:46:28;;;;;;;;;;;;;;;18.75;66.50;101738.06;5091435;28;1260;-74
2021/03/06 11:48:54;;;;;;;;;;;;;;;18.73;66.58;101729.31;5111764;28;1152;-74
2021/03/06 11:51:21;;;;;;;;;;;;;;;18.73;66.43;101734.59;5091581;28;1393;-74
2021/03/06 11:53:47;;;;;;;;;;;;;;;18.79;66.23;101736.97;5070797;28;1447;-70
2021/03/06 11:56:13;;;;;;;;;;;;;;;18.79;66.51;101730.84;5088523;28;1309;-73
2021/03/06 11:58:41;;;;;;;;;;;;;;;18.76;66.70;101723.91;5088679;28;1062;-73
2021/03/06 12:01:08;;;;;;;;;;;;;;;18.74;66.56;101723.13;5088326;28;1966;-71
2021/03/06 12:03:35;;;;;;;;;;;;;;;18.73;66.58;101718.75;5088724;28;1134;-74
2021/03/06 12:06:01;;;;;;;;;;;;;;;18.74;66.74;101716.97;5053488;28;1244;-73
2021/03/06 12:08:29;;;;;;;;;;;;;;;18.74;66.59;101714.34;5089062;28;1153;-74
2021/03/06 12:10:55;;;;;;;;;;;;;;;18.74;66.72;101709.94;5088537;28;1680;-72
2021/03/06 12:13:21;;;;;;;;;;;;;;;18.73;66.70;101713.47;5088826;28;1164;-72
2021/03/06 12:15:50;;;;;;;;;;;;;;;18.73;66.73;101705.56;5070800;28;1334;-73
2021/03/06 12:18:16;;;;;;;;;;;;;;;18.76;66.54;101705.44;5088838;28;1069;-73
2021/03/06 12:20:44;;;;;;;;;;;;;;;18.79;66.52;101707.94;5069326;28;1909;-72
2021/03/06 12:23:10;;;;;;;;;;;;;;;18.76;66.71;101700.16;5086434;28;1109;-74
2021/03/06 12:25:36;;;;;;;;;;;;;;;18.78;64.95;101694.84;5087796;28;1222;-71
2021/03/06 12:28:03;;;;;;;;;;;;;;;18.82;63.96;101691.97;5078531;28;1052;-72
2021/03/06 12:30:30;;;;;;;;;;;;;;;18.82;63.67;101691.13;5087609;28;1326;-73
2021/03/06 12:32:56;;;;;;;;;;;;;;;18.68;61.12;101689.06;5078008;28;1036;-75
2021/03/06 12:35:22;;;;;;;;;;;;;;;18.57;58.64;101686.03;5072556;28;1374;-71
2021/03/06 12:37:49;;;;;;;;;;;;;;;18.50;56.12;101684.56;5085684;28;1202;-66
2021/03/06 12:40:15;;;;;;;;;;;;;;;18.42;55.20;101671.63;5083899;28;1503;-76
2021/03/06 12:42:41;;;;;;;;;;;;;;;18.41;53.60;101684.91;5084627;28;1917;-68
2021/03/06 12:45:12;;;;;;;;;;;;;;;18.28;52.48;101678.41;5085368;28;1311;-70
2021/03/06 12:47:42;;;;;;;;;;;;;;;18.54;53.00;101681.72;5074838;28;1494;-74
2021/03/06 12:50:10;;;;;;;;;;;;;;;18.46;51.54;101675.00;5088185;28;1359;-70
2021/03/06 12:52:41;;;;;;;;;;;;;;;18.35;51.28;101675.47;5075332;28;1235;-69
2021/03/06 12:55:12;;;;;;;;;;;;;;;18.32;51.31;101675.59;5087025;28;1311;-71